Gravette, AR (72736)

12:22 PM CST on January 31, 2015 (GMT -0600)
Loch Lomond | Change Station
CLOSE
Current Station
Personal Weather Station
Location: Bella Vista, AR
Elevation: 1243 ft
Nearby Weather Stations

Elev 1243 ft 36.48 °N, 94.33 °W | Updated 22 minutes ago

Overcast
Overcast
46.5 °F
Feels Like 46 °F
N
2.0
Wind Variable Wind from WSW
Gusts 2.0 mph

Today
High -- | Low -- °F
--% Chance of Precip.
Yesterday
High -- | Low -- °F
Precip. -- in
7:20 AM 5:42 PM
Waxing Gibbous, 91% visible
Pressure 30.20 in
Visibility 10.0 miles
Clouds Overcast 10000 ft
Windchill 46 °F
Dew Point 20 °F
Humidity 35%
Rainfall 0.00 in
Snow Depth Not available.
UV 1 out of 12
Pollen 3.60 out of 12
Air Quality Not available.
Flu Activity Not available.
METAR KXNA 311753Z 18009KT 10SM OVC100 09/M10 A3020 RMK AO2 SLP227 T00891100 10089 20033 58011

More Conditions Fewer Conditions

Pressure 30.20 in
Visibility 10.0 miles
Clouds Overcast 10000 ft
Windchill 46 °F
Dew Point 20 °F
Humidity 35%
Rainfall 0.00 in
Snow Depth Not available.
UV 1 out of 12
Pollen 3.60 out of 12
Air Quality Not available.
Flu Activity Not available.
METAR KXNA 311753Z 18009KT 10SM OVC100 09/M10 A3020 RMK AO2 SLP227 T00891100 10089 20033 58011

More Conditions Fewer Conditions

Nowcast | as of 11:14 am CST on January 31, 2015

At 11:11 am... National Weather Service Doppler radar continued to indicate a broad area of predominantly light rain... moving to the northeast across parts of central and eastern Oklahoma. Most affected were locations along and west of Highway 75 and along and north of I 40. Through 1:00 PM... light to occasionally moderate rain is expected to persist mostly along and west of Highway 75 and along and north of I 40 in eastern Oklahoma. The area of rain will continue to slowly advance eastward. Light average hourly rainfall rates of several hundredth of an inch... are anticipated.

×

10-Day Weather Forecast

Almanac

Astronomy

Jan. 31, 2015 Rise Set
Actual Time
Civil Twilight
Nautical Twilight
Astronomical Twilight
Moon
Length of Visible Light
Length of Day
Tomorrow will be .
, % of the Moon is Illuminated

Today's Extremes

State Highs State Lows

Community

WunderPhotos

Upload Photos

1,792,143 photos uploaded!

WunderBlogs® & News

Nearby

Air Quality

  Air Quality AQ Index Pollutant
Not available.

Snow Depth

Station Depth Elevation

Earthquake Activity

City Distance Mag. Time & Date
Minimum magnitude displayed is 2.5.

Coastal Water Temperatures

Place Temperature

Nearby Weather Stations